sensor_id;sensor_type;location;lat;lon;timestamp;P1;durP1;ratioP1;P2;durP2;ratioP2
9422;SDS011;65863;49.506;10.400;2023-10-19T00:00:23;12.83;;;10.50;;
9422;SDS011;65863;49.506;10.400;2023-10-19T00:03:09;11.20;;;10.07;;
9422;SDS011;65863;49.506;10.400;2023-10-19T00:05:56;10.67;;;9.53;;
9422;SDS011;65863;49.506;10.400;2023-10-19T00:08:40;11.63;;;9.60;;
9422;SDS011;65863;49.506;10.400;2023-10-19T00:11:27;11.47;;;10.13;;
9422;SDS011;65863;49.506;10.400;2023-10-19T00:14:11;11.97;;;10.00;;
9422;SDS011;65863;49.506;10.400;2023-10-19T00:17:02;13.30;;;10.53;;
9422;SDS011;65863;49.506;10.400;2023-10-19T00:19:49;11.93;;;10.07;;
9422;SDS011;65863;49.506;10.400;2023-10-19T00:22:52;11.50;;;10.03;;
9422;SDS011;65863;49.506;10.400;2023-10-19T00:25:37;12.13;;;10.43;;
9422;SDS011;65863;49.506;10.400;2023-10-19T00:28:26;12.93;;;10.73;;
9422;SDS011;65863;49.506;10.400;2023-10-19T00:31:12;11.77;;;10.03;;
9422;SDS011;65863;49.506;10.400;2023-10-19T00:33:57;14.63;;;11.33;;
9422;SDS011;65863;49.506;10.400;2023-10-19T00:36:42;12.93;;;10.80;;
9422;SDS011;65863;49.506;10.400;2023-10-19T00:39:26;11.83;;;10.47;;
9422;SDS011;65863;49.506;10.400;2023-10-19T00:42:11;12.73;;;11.17;;
9422;SDS011;65863;49.506;10.400;2023-10-19T00:44:55;11.40;;;10.20;;
9422;SDS011;65863;49.506;10.400;2023-10-19T00:47:46;12.53;;;10.70;;
9422;SDS011;65863;49.506;10.400;2023-10-19T00:50:31;11.53;;;10.30;;
9422;SDS011;65863;49.506;10.400;2023-10-19T00:53:16;13.47;;;10.90;;
9422;SDS011;65863;49.506;10.400;2023-10-19T00:56:01;16.17;;;12.30;;
9422;SDS011;65863;49.506;10.400;2023-10-19T00:58:49;14.60;;;11.10;;
9422;SDS011;65863;49.506;10.400;2023-10-19T03:45:39;20.83;;;17.03;;
9422;SDS011;65863;49.506;10.400;2023-10-19T03:48:27;19.90;;;15.07;;
9422;SDS011;65863;49.506;10.400;2023-10-19T03:51:17;19.60;;;15.60;;
9422;SDS011;65863;49.506;10.400;2023-10-19T03:54:02;19.87;;;15.57;;
9422;SDS011;65863;49.506;10.400;2023-10-19T03:56:53;18.77;;;15.90;;
9422;SDS011;65863;49.506;10.400;2023-10-19T03:59:41;20.77;;;15.33;;
9422;SDS011;65863;49.506;10.400;2023-10-19T04:02:25;18.23;;;15.13;;
9422;SDS011;65863;49.506;10.400;2023-10-19T04:05:13;18.50;;;15.53;;
9422;SDS011;65863;49.506;10.400;2023-10-19T04:08:05;20.33;;;14.03;;
9422;SDS011;65863;49.506;10.400;2023-10-19T04:11:04;16.23;;;14.17;;
9422;SDS011;65863;49.506;10.400;2023-10-19T04:14:05;20.87;;;14.27;;
9422;SDS011;65863;49.506;10.400;2023-10-19T04:16:49;16.53;;;14.40;;
9422;SDS011;65863;49.506;10.400;2023-10-19T04:19:33;19.53;;;14.20;;
9422;SDS011;65863;49.506;10.400;2023-10-19T04:22:17;17.17;;;14.63;;
9422;SDS011;65863;49.506;10.400;2023-10-19T04:25:08;18.00;;;14.20;;
9422;SDS011;65863;49.506;10.400;2023-10-19T04:27:52;17.30;;;14.47;;
9422;SDS011;65863;49.506;10.400;2023-10-19T04:30:36;19.03;;;15.67;;
9422;SDS011;65863;49.506;10.400;2023-10-19T04:33:21;17.73;;;15.53;;
9422;SDS011;65863;49.506;10.400;2023-10-19T04:36:06;17.40;;;13.70;;
9422;SDS011;65863;49.506;10.400;2023-10-19T04:38:54;16.23;;;14.43;;
9422;SDS011;65863;49.506;10.400;2023-10-19T04:41:40;17.90;;;14.93;;
9422;SDS011;65863;49.506;10.400;2023-10-19T04:44:25;17.43;;;14.57;;
9422;SDS011;65863;49.506;10.400;2023-10-19T04:47:09;21.57;;;15.57;;
9422;SDS011;65863;49.506;10.400;2023-10-19T04:49:53;20.23;;;15.40;;
9422;SDS011;65863;49.506;10.400;2023-10-19T04:52:37;22.90;;;17.13;;
9422;SDS011;65863;49.506;10.400;2023-10-19T04:55:22;23.27;;;17.43;;
9422;SDS011;65863;49.506;10.400;2023-10-19T04:58:06;20.17;;;16.33;;
9422;SDS011;65863;49.506;10.400;2023-10-19T05:00:50;17.90;;;15.97;;
9422;SDS011;65863;49.506;10.400;2023-10-19T05:03:34;22.73;;;17.40;;
9422;SDS011;65863;49.506;10.400;2023-10-19T05:06:19;20.10;;;17.03;;
9422;SDS011;65863;49.506;10.400;2023-10-19T05:09:03;25.43;;;18.00;;
9422;SDS011;65863;49.506;10.400;2023-10-19T05:11:47;24.57;;;17.93;;
9422;SDS011;65863;49.506;10.400;2023-10-19T05:14:31;20.53;;;17.17;;
9422;SDS011;65863;49.506;10.400;2023-10-19T05:17:16;24.60;;;17.97;;
9422;SDS011;65863;49.506;10.400;2023-10-19T05:20:00;23.80;;;18.43;;
9422;SDS011;65863;49.506;10.400;2023-10-19T05:22:44;20.23;;;17.03;;
9422;SDS011;65863;49.506;10.400;2023-10-19T05:25:28;21.00;;;16.60;;
9422;SDS011;65863;49.506;10.400;2023-10-19T05:28:12;20.00;;;16.47;;
9422;SDS011;65863;49.506;10.400;2023-10-19T05:30:58;22.10;;;18.30;;
9422;SDS011;65863;49.506;10.400;2023-10-19T05:33:43;22.77;;;18.03;;
9422;SDS011;65863;49.506;10.400;2023-10-19T05:36:27;21.87;;;17.63;;
9422;SDS011;65863;49.506;10.400;2023-10-19T05:39:11;22.90;;;18.53;;
9422;SDS011;65863;49.506;10.400;2023-10-19T05:41:57;23.20;;;18.07;;
9422;SDS011;65863;49.506;10.400;2023-10-19T05:44:44;24.27;;;17.90;;
9422;SDS011;65863;49.506;10.400;2023-10-19T05:47:29;23.93;;;18.13;;
9422;SDS011;65863;49.506;10.400;2023-10-19T05:50:13;29.17;;;17.13;;
9422;SDS011;65863;49.506;10.400;2023-10-19T05:53:35;21.73;;;17.37;;
9422;SDS011;65863;49.506;10.400;2023-10-19T05:56:21;21.83;;;17.90;;
9422;SDS011;65863;49.506;10.400;2023-10-19T05:59:04;23.37;;;17.80;;
9422;SDS011;65863;49.506;10.400;2023-10-19T06:01:50;21.90;;;17.60;;
9422;SDS011;65863;49.506;10.400;2023-10-19T06:04:35;19.27;;;15.87;;
9422;SDS011;65863;49.506;10.400;2023-10-19T06:07:57;22.93;;;17.43;;
9422;SDS011;65863;49.506;10.400;2023-10-19T06:10:43;22.17;;;18.80;;
9422;SDS011;65863;49.506;10.400;2023-10-19T06:13:27;21.90;;;17.37;;
9422;SDS011;65863;49.506;10.400;2023-10-19T06:16:11;22.10;;;17.77;;
9422;SDS011;65863;49.506;10.400;2023-10-19T06:18:55;21.60;;;17.23;;
9422;SDS011;65863;49.506;10.400;2023-10-19T06:21:39;23.37;;;17.83;;
9422;SDS011;65863;49.506;10.400;2023-10-19T06:24:23;20.90;;;16.83;;
9422;SDS011;65863;49.506;10.400;2023-10-19T06:27:07;22.53;;;17.23;;
9422;SDS011;65863;49.506;10.400;2023-10-19T06:29:51;19.33;;;16.30;;
9422;SDS011;65863;49.506;10.400;2023-10-19T06:32:36;23.87;;;17.80;;
9422;SDS011;65863;49.506;10.400;2023-10-19T06:35:21;21.70;;;17.70;;
9422;SDS011;65863;49.506;10.400;2023-10-19T06:38:07;20.90;;;18.20;;
9422;SDS011;65863;49.506;10.400;2023-10-19T06:40:53;21.33;;;16.60;;
9422;SDS011;65863;49.506;10.400;2023-10-19T06:43:37;20.10;;;17.00;;
9422;SDS011;65863;49.506;10.400;2023-10-19T06:46:22;21.50;;;16.80;;
9422;SDS011;65863;49.506;10.400;2023-10-19T06:49:06;19.20;;;16.67;;
9422;SDS011;65863;49.506;10.400;2023-10-19T06:51:51;22.27;;;15.90;;
9422;SDS011;65863;49.506;10.400;2023-10-19T06:54:36;19.87;;;15.27;;
9422;SDS011;65863;49.506;10.400;2023-10-19T06:57:21;20.67;;;16.30;;
9422;SDS011;65863;49.506;10.400;2023-10-19T07:00:06;17.70;;;15.47;;
9422;SDS011;65863;49.506;10.400;2023-10-19T07:02:57;20.03;;;17.00;;
9422;SDS011;65863;49.506;10.400;2023-10-19T07:05:45;20.10;;;16.33;;
9422;SDS011;65863;49.506;10.400;2023-10-19T07:08:30;18.77;;;15.60;;
9422;SDS011;65863;49.506;10.400;2023-10-19T07:11:13;22.27;;;16.27;;
9422;SDS011;65863;49.506;10.400;2023-10-19T07:13:57;19.17;;;15.50;;
9422;SDS011;65863;49.506;10.400;2023-10-19T07:16:41;19.60;;;15.17;;
9422;SDS011;65863;49.506;10.400;2023-10-19T07:19:25;20.70;;;16.10;;
9422;SDS011;65863;49.506;10.400;2023-10-19T07:22:12;21.03;;;15.07;;
9422;SDS011;65863;49.506;10.400;2023-10-19T07:24:58;18.17;;;14.77;;
9422;SDS011;65863;49.506;10.400;2023-10-19T07:27:43;18.17;;;15.40;;
9422;SDS011;65863;49.506;10.400;2023-10-19T07:30:27;16.30;;;14.43;;
9422;SDS011;65863;49.506;10.400;2023-10-19T07:33:12;25.60;;;19.97;;
9422;SDS011;65863;49.506;10.400;2023-10-19T07:36:11;25.70;;;20.13;;
9422;SDS011;65863;49.506;10.400;2023-10-19T07:38:58;21.67;;;17.67;;
9422;SDS011;65863;49.506;10.400;2023-10-19T07:41:42;19.00;;;15.27;;
9422;SDS011;65863;49.506;10.400;2023-10-19T07:44:51;20.47;;;15.03;;
9422;SDS011;65863;49.506;10.400;2023-10-19T07:47:35;20.53;;;17.80;;
9422;SDS011;65863;49.506;10.400;2023-10-19T07:50:19;19.73;;;15.60;;
9422;SDS011;65863;49.506;10.400;2023-10-19T07:53:06;17.47;;;15.60;;
9422;SDS011;65863;49.506;10.400;2023-10-19T07:55:50;14.77;;;12.50;;
9422;SDS011;65863;49.506;10.400;2023-10-19T07:58:34;15.37;;;12.97;;
9422;SDS011;65863;49.506;10.400;2023-10-19T08:01:18;13.90;;;12.40;;
9422;SDS011;65863;49.506;10.400;2023-10-19T08:04:03;15.23;;;12.00;;
9422;SDS011;65863;49.506;10.400;2023-10-19T08:07:05;12.63;;;11.27;;
9422;SDS011;65863;49.506;10.400;2023-10-19T08:09:50;13.70;;;10.73;;
9422;SDS011;65863;49.506;10.400;2023-10-19T08:13:12;15.13;;;12.13;;
9422;SDS011;65863;49.506;10.400;2023-10-19T08:16:02;11.80;;;10.53;;
9422;SDS011;65863;49.506;10.400;2023-10-19T08:18:47;12.50;;;11.20;;
9422;SDS011;65863;49.506;10.400;2023-10-19T08:21:32;12.60;;;11.10;;
9422;SDS011;65863;49.506;10.400;2023-10-19T08:24:17;12.90;;;11.50;;
9422;SDS011;65863;49.506;10.400;2023-10-19T08:27:07;12.70;;;10.33;;
9422;SDS011;65863;49.506;10.400;2023-10-19T08:29:52;14.27;;;12.57;;
9422;SDS011;65863;49.506;10.400;2023-10-19T08:32:36;13.70;;;12.23;;
9422;SDS011;65863;49.506;10.400;2023-10-19T08:35:20;20.30;;;15.43;;
9422;SDS011;65863;49.506;10.400;2023-10-19T08:38:08;13.90;;;12.37;;
9422;SDS011;65863;49.506;10.400;2023-10-19T08:40:55;13.73;;;11.63;;
9422;SDS011;65863;49.506;10.400;2023-10-19T08:43:39;20.40;;;12.20;;
9422;SDS011;65863;49.506;10.400;2023-10-19T08:46:23;13.27;;;10.63;;
9422;SDS011;65863;49.506;10.400;2023-10-19T08:49:11;12.23;;;10.93;;
9422;SDS011;65863;49.506;10.400;2023-10-19T08:52:07;11.30;;;10.10;;
9422;SDS011;65863;49.506;10.400;2023-10-19T08:54:52;11.87;;;10.17;;
9422;SDS011;65863;49.506;10.400;2023-10-19T08:57:37;13.73;;;10.73;;
9422;SDS011;65863;49.506;10.400;2023-10-19T09:00:22;10.93;;;9.13;;
9422;SDS011;65863;49.506;10.400;2023-10-19T09:03:08;12.27;;;9.10;;
9422;SDS011;65863;49.506;10.400;2023-10-19T09:05:52;11.27;;;10.07;;
9422;SDS011;65863;49.506;10.400;2023-10-19T09:08:37;13.10;;;10.53;;
9422;SDS011;65863;49.506;10.400;2023-10-19T09:11:24;12.30;;;10.50;;
9422;SDS011;65863;49.506;10.400;2023-10-19T09:14:08;12.53;;;11.00;;
9422;SDS011;65863;49.506;10.400;2023-10-19T09:16:55;12.07;;;10.23;;
9422;SDS011;65863;49.506;10.400;2023-10-19T09:19:44;12.70;;;10.37;;
9422;SDS011;65863;49.506;10.400;2023-10-19T09:22:35;11.70;;;10.10;;
9422;SDS011;65863;49.506;10.400;2023-10-19T09:25:27;12.03;;;10.00;;
9422;SDS011;65863;49.506;10.400;2023-10-19T09:28:11;11.17;;;9.43;;
9422;SDS011;65863;49.506;10.400;2023-10-19T09:30:57;10.37;;;9.37;;
9422;SDS011;65863;49.506;10.400;2023-10-19T09:34:07;10.30;;;8.87;;
9422;SDS011;65863;49.506;10.400;2023-10-19T09:36:54;10.07;;;9.07;;
9422;SDS011;65863;49.506;10.400;2023-10-19T09:39:38;9.47;;;8.57;;
9422;SDS011;65863;49.506;10.400;2023-10-19T09:42:23;10.23;;;8.87;;
9422;SDS011;65863;49.506;10.400;2023-10-19T09:45:10;10.03;;;9.00;;
9422;SDS011;65863;49.506;10.400;2023-10-19T09:47:54;10.30;;;9.30;;
9422;SDS011;65863;49.506;10.400;2023-10-19T09:50:39;9.63;;;7.17;;
9422;SDS011;65863;49.506;10.400;2023-10-19T09:53:26;8.23;;;7.40;;
9422;SDS011;65863;49.506;10.400;2023-10-19T09:56:24;7.77;;;7.07;;
9422;SDS011;65863;49.506;10.400;2023-10-19T09:59:21;8.37;;;7.03;;
9422;SDS011;65863;49.506;10.400;2023-10-19T10:02:10;9.87;;;7.87;;
9422;SDS011;65863;49.506;10.400;2023-10-19T10:04:59;11.20;;;7.97;;
9422;SDS011;65863;49.506;10.400;2023-10-19T10:07:43;9.20;;;7.57;;
9422;SDS011;65863;49.506;10.400;2023-10-19T10:10:27;8.87;;;7.30;;
9422;SDS011;65863;49.506;10.400;2023-10-19T10:16:08;8.80;;;7.10;;
9422;SDS011;65863;49.506;10.400;2023-10-19T10:18:56;7.80;;;7.00;;
9422;SDS011;65863;49.506;10.400;2023-10-19T10:21:43;7.00;;;6.30;;
9422;SDS011;65863;49.506;10.400;2023-10-19T10:24:55;7.90;;;6.93;;
9422;SDS011;65863;49.506;10.400;2023-10-19T10:27:50;7.70;;;6.97;;
9422;SDS011;65863;49.506;10.400;2023-10-19T10:30:35;8.33;;;7.33;;
9422;SDS011;65863;49.506;10.400;2023-10-19T10:33:37;7.87;;;7.10;;
9422;SDS011;65863;49.506;10.400;2023-10-19T10:36:22;7.87;;;7.17;;
9422;SDS011;65863;49.506;10.400;2023-10-19T10:39:06;8.43;;;7.07;;
9422;SDS011;65863;49.506;10.400;2023-10-19T10:41:59;8.87;;;7.27;;
9422;SDS011;65863;49.506;10.400;2023-10-19T10:44:44;8.00;;;6.83;;
9422;SDS011;65863;49.506;10.400;2023-10-19T10:47:30;9.10;;;7.93;;
9422;SDS011;65863;49.506;10.400;2023-10-19T10:50:19;8.17;;;7.00;;
9422;SDS011;65863;49.506;10.400;2023-10-19T10:53:04;9.47;;;7.30;;
9422;SDS011;65863;49.506;10.400;2023-10-19T10:55:49;14.20;;;8.30;;
9422;SDS011;65863;49.506;10.400;2023-10-19T10:58:33;8.53;;;7.60;;
9422;SDS011;65863;49.506;10.400;2023-10-19T11:01:32;11.87;;;7.77;;
9422;SDS011;65863;49.506;10.400;2023-10-19T11:04:16;9.10;;;8.07;;
9422;SDS011;65863;49.506;10.400;2023-10-19T11:07:01;9.77;;;8.33;;
9422;SDS011;65863;49.506;10.400;2023-10-19T11:10:10;7.70;;;6.90;;
9422;SDS011;65863;49.506;10.400;2023-10-19T11:13:08;9.07;;;7.60;;
9422;SDS011;65863;49.506;10.400;2023-10-19T11:15:57;7.37;;;6.67;;
9422;SDS011;65863;49.506;10.400;2023-10-19T11:18:41;9.57;;;7.23;;
9422;SDS011;65863;49.506;10.400;2023-10-19T11:21:29;8.43;;;7.07;;
9422;SDS011;65863;49.506;10.400;2023-10-19T11:24:23;9.20;;;7.03;;
9422;SDS011;65863;49.506;10.400;2023-10-19T11:27:08;11.27;;;6.63;;
9422;SDS011;65863;49.506;10.400;2023-10-19T11:29:57;8.00;;;7.10;;
9422;SDS011;65863;49.506;10.400;2023-10-19T11:35:56;8.50;;;6.93;;
9422;SDS011;65863;49.506;10.400;2023-10-19T11:38:40;8.20;;;7.40;;
9422;SDS011;65863;49.506;10.400;2023-10-19T11:41:26;7.63;;;6.83;;
9422;SDS011;65863;49.506;10.400;2023-10-19T11:44:10;7.33;;;6.50;;
9422;SDS011;65863;49.506;10.400;2023-10-19T11:46:54;9.43;;;6.37;;
9422;SDS011;65863;49.506;10.400;2023-10-19T11:49:38;7.33;;;6.50;;
9422;SDS011;65863;49.506;10.400;2023-10-19T11:52:22;8.10;;;6.97;;
9422;SDS011;65863;49.506;10.400;2023-10-19T11:55:06;10.57;;;6.77;;
9422;SDS011;65863;49.506;10.400;2023-10-19T11:57:52;7.93;;;7.07;;
9422;SDS011;65863;49.506;10.400;2023-10-19T12:00:36;9.00;;;7.17;;
9422;SDS011;65863;49.506;10.400;2023-10-19T12:03:21;10.40;;;7.07;;
9422;SDS011;65863;49.506;10.400;2023-10-19T12:06:08;8.00;;;7.20;;
9422;SDS011;65863;49.506;10.400;2023-10-19T12:08:53;9.23;;;8.13;;
9422;SDS011;65863;49.506;10.400;2023-10-19T12:11:39;7.97;;;7.17;;
9422;SDS011;65863;49.506;10.400;2023-10-19T12:14:23;8.33;;;7.20;;
9422;SDS011;65863;49.506;10.400;2023-10-19T12:17:07;8.43;;;6.90;;
9422;SDS011;65863;49.506;10.400;2023-10-19T12:19:51;7.40;;;6.70;;
9422;SDS011;65863;49.506;10.400;2023-10-19T12:22:35;7.40;;;6.67;;
9422;SDS011;65863;49.506;10.400;2023-10-19T12:25:22;7.17;;;6.47;;
9422;SDS011;65863;49.506;10.400;2023-10-19T12:28:12;7.47;;;6.40;;
9422;SDS011;65863;49.506;10.400;2023-10-19T12:30:57;7.50;;;6.60;;
9422;SDS011;65863;49.506;10.400;2023-10-19T12:33:41;10.30;;;6.90;;
9422;SDS011;65863;49.506;10.400;2023-10-19T12:36:25;7.47;;;6.33;;
9422;SDS011;65863;49.506;10.400;2023-10-19T12:39:12;7.00;;;5.83;;
9422;SDS011;65863;49.506;10.400;2023-10-19T12:42:17;8.07;;;6.00;;
9422;SDS011;65863;49.506;10.400;2023-10-19T12:45:01;8.67;;;6.57;;
9422;SDS011;65863;49.506;10.400;2023-10-19T12:47:46;13.60;;;7.07;;
9422;SDS011;65863;49.506;10.400;2023-10-19T12:50:30;7.20;;;6.50;;
9422;SDS011;65863;49.506;10.400;2023-10-19T12:53:14;8.13;;;6.70;;
9422;SDS011;65863;49.506;10.400;2023-10-19T12:55:58;8.73;;;6.73;;
9422;SDS011;65863;49.506;10.400;2023-10-19T12:58:43;6.97;;;6.27;;
9422;SDS011;65863;49.506;10.400;2023-10-19T13:01:27;9.97;;;7.20;;
9422;SDS011;65863;49.506;10.400;2023-10-19T13:04:12;8.33;;;6.63;;
9422;SDS011;65863;49.506;10.400;2023-10-19T13:07:02;7.73;;;6.60;;
9422;SDS011;65863;49.506;10.400;2023-10-19T13:09:46;7.53;;;6.83;;
9422;SDS011;65863;49.506;10.400;2023-10-19T13:12:33;8.30;;;6.87;;
9422;SDS011;65863;49.506;10.400;2023-10-19T13:15:17;12.93;;;7.97;;
9422;SDS011;65863;49.506;10.400;2023-10-19T13:18:04;11.87;;;8.00;;
9422;SDS011;65863;49.506;10.400;2023-10-19T13:20:49;10.10;;;9.10;;
9422;SDS011;65863;49.506;10.400;2023-10-19T13:23:33;12.97;;;11.57;;
9422;SDS011;65863;49.506;10.400;2023-10-19T13:26:17;11.37;;;9.07;;
9422;SDS011;65863;49.506;10.400;2023-10-19T13:29:01;10.57;;;9.23;;
9422;SDS011;65863;49.506;10.400;2023-10-19T13:31:45;10.10;;;9.00;;
9422;SDS011;65863;49.506;10.400;2023-10-19T13:34:33;11.17;;;10.07;;
9422;SDS011;65863;49.506;10.400;2023-10-19T13:37:17;11.13;;;9.17;;
9422;SDS011;65863;49.506;10.400;2023-10-19T13:40:02;11.47;;;10.27;;
9422;SDS011;65863;49.506;10.400;2023-10-19T13:42:49;10.90;;;9.70;;
9422;SDS011;65863;49.506;10.400;2023-10-19T13:45:34;12.10;;;10.10;;
9422;SDS011;65863;49.506;10.400;2023-10-19T13:48:19;11.60;;;10.40;;
9422;SDS011;65863;49.506;10.400;2023-10-19T13:51:04;11.60;;;10.40;;
9422;SDS011;65863;49.506;10.400;2023-10-19T13:53:57;11.00;;;9.90;;
9422;SDS011;65863;49.506;10.400;2023-10-19T13:56:41;12.60;;;10.17;;
9422;SDS011;65863;49.506;10.400;2023-10-19T13:59:25;11.83;;;10.33;;
9422;SDS011;65863;49.506;10.400;2023-10-19T14:02:12;11.13;;;9.73;;
9422;SDS011;65863;49.506;10.400;2023-10-19T14:04:56;12.53;;;9.63;;
9422;SDS011;65863;49.506;10.400;2023-10-19T14:07:40;11.10;;;9.73;;
9422;SDS011;65863;49.506;10.400;2023-10-19T14:10:23;11.10;;;10.00;;
9422;SDS011;65863;49.506;10.400;2023-10-19T14:13:08;13.43;;;9.63;;
9422;SDS011;65863;49.506;10.400;2023-10-19T14:15:55;10.50;;;8.93;;
9422;SDS011;65863;49.506;10.400;2023-10-19T14:18:39;11.77;;;9.40;;
9422;SDS011;65863;49.506;10.400;2023-10-19T14:21:23;12.43;;;9.10;;
9422;SDS011;65863;49.506;10.400;2023-10-19T14:24:10;11.00;;;9.67;;
9422;SDS011;65863;49.506;10.400;2023-10-19T14:26:54;10.90;;;9.73;;
9422;SDS011;65863;49.506;10.400;2023-10-19T14:29:38;11.63;;;9.57;;
9422;SDS011;65863;49.506;10.400;2023-10-19T14:32:22;11.90;;;9.60;;
9422;SDS011;65863;49.506;10.400;2023-10-19T14:35:06;12.97;;;10.27;;
9422;SDS011;65863;49.506;10.400;2023-10-19T14:37:53;11.03;;;9.70;;
9422;SDS011;65863;49.506;10.400;2023-10-19T14:40:38;10.50;;;9.40;;
9422;SDS011;65863;49.506;10.400;2023-10-19T14:43:27;10.87;;;9.33;;
9422;SDS011;65863;49.506;10.400;2023-10-19T14:46:13;11.30;;;9.53;;
9422;SDS011;65863;49.506;10.400;2023-10-19T14:48:57;14.23;;;11.83;;
9422;SDS011;65863;49.506;10.400;2023-10-19T14:51:41;11.20;;;9.87;;
9422;SDS011;65863;49.506;10.400;2023-10-19T14:54:26;10.43;;;9.10;;
9422;SDS011;65863;49.506;10.400;2023-10-19T14:57:10;11.77;;;9.83;;
9422;SDS011;65863;49.506;10.400;2023-10-19T14:59:54;9.50;;;8.60;;
9422;SDS011;65863;49.506;10.400;2023-10-19T15:02:38;11.10;;;9.33;;
9422;SDS011;65863;49.506;10.400;2023-10-19T15:05:23;9.43;;;8.33;;
9422;SDS011;65863;49.506;10.400;2023-10-19T15:08:10;9.30;;;8.10;;
9422;SDS011;65863;49.506;10.400;2023-10-19T15:10:54;10.57;;;9.13;;
9422;SDS011;65863;49.506;10.400;2023-10-19T15:13:38;10.83;;;8.53;;
9422;SDS011;65863;49.506;10.400;2023-10-19T15:16:22;10.03;;;9.03;;
9422;SDS011;65863;49.506;10.400;2023-10-19T15:19:07;10.93;;;9.13;;
9422;SDS011;65863;49.506;10.400;2023-10-19T15:21:51;9.83;;;8.40;;
9422;SDS011;65863;49.506;10.400;2023-10-19T15:24:35;13.40;;;10.17;;
9422;SDS011;65863;49.506;10.400;2023-10-19T15:27:19;14.83;;;11.47;;
9422;SDS011;65863;49.506;10.400;2023-10-19T15:30:04;15.33;;;12.07;;
9422;SDS011;65863;49.506;10.400;2023-10-19T15:32:50;14.57;;;11.50;;
9422;SDS011;65863;49.506;10.400;2023-10-19T15:35:36;11.33;;;10.13;;
9422;SDS011;65863;49.506;10.400;2023-10-19T15:38:21;15.17;;;10.03;;
9422;SDS011;65863;49.506;10.400;2023-10-19T15:41:05;12.83;;;11.53;;
9422;SDS011;65863;49.506;10.400;2023-10-19T15:43:50;12.30;;;10.57;;
9422;SDS011;65863;49.506;10.400;2023-10-19T15:46:33;12.93;;;10.40;;
9422;SDS011;65863;49.506;10.400;2023-10-19T15:49:22;16.90;;;10.60;;
9422;SDS011;65863;49.506;10.400;2023-10-19T15:52:06;13.17;;;11.83;;
9422;SDS011;65863;49.506;10.400;2023-10-19T15:54:51;11.97;;;10.70;;
9422;SDS011;65863;49.506;10.400;2023-10-19T15:57:36;15.57;;;11.60;;
9422;SDS011;65863;49.506;10.400;2023-10-19T16:00:21;12.80;;;10.97;;
9422;SDS011;65863;49.506;10.400;2023-10-19T16:03:07;12.17;;;10.97;;
9422;SDS011;65863;49.506;10.400;2023-10-19T16:05:52;15.70;;;11.43;;
9422;SDS011;65863;49.506;10.400;2023-10-19T16:08:36;13.97;;;11.73;;
9422;SDS011;65863;49.506;10.400;2023-10-19T16:11:21;13.73;;;12.23;;
9422;SDS011;65863;49.506;10.400;2023-10-19T16:14:05;14.17;;;12.67;;
9422;SDS011;65863;49.506;10.400;2023-10-19T16:16:49;18.10;;;15.60;;
9422;SDS011;65863;49.506;10.400;2023-10-19T16:19:33;19.37;;;15.83;;
9422;SDS011;65863;49.506;10.400;2023-10-19T16:22:17;17.40;;;13.60;;
9422;SDS011;65863;49.506;10.400;2023-10-19T16:25:01;15.57;;;12.50;;
9422;SDS011;65863;49.506;10.400;2023-10-19T16:27:47;17.00;;;14.70;;
9422;SDS011;65863;49.506;10.400;2023-10-19T16:30:30;16.30;;;14.20;;
9422;SDS011;65863;49.506;10.400;2023-10-19T16:33:18;19.17;;;14.27;;
9422;SDS011;65863;49.506;10.400;2023-10-19T16:36:02;15.70;;;13.07;;
9422;SDS011;65863;49.506;10.400;2023-10-19T16:38:46;17.90;;;13.23;;
9422;SDS011;65863;49.506;10.400;2023-10-19T16:41:31;15.83;;;14.00;;
9422;SDS011;65863;49.506;10.400;2023-10-19T16:44:15;15.90;;;14.30;;
9422;SDS011;65863;49.506;10.400;2023-10-19T16:46:59;17.00;;;14.13;;
9422;SDS011;65863;49.506;10.400;2023-10-19T16:49:43;16.60;;;14.33;;
9422;SDS011;65863;49.506;10.400;2023-10-19T16:52:27;15.73;;;13.33;;
9422;SDS011;65863;49.506;10.400;2023-10-19T16:55:11;14.63;;;13.03;;
9422;SDS011;65863;49.506;10.400;2023-10-19T16:57:55;16.93;;;13.67;;
9422;SDS011;65863;49.506;10.400;2023-10-19T17:00:42;15.57;;;13.53;;
9422;SDS011;65863;49.506;10.400;2023-10-19T17:03:27;13.07;;;11.77;;
9422;SDS011;65863;49.506;10.400;2023-10-19T17:06:12;15.07;;;12.93;;
9422;SDS011;65863;49.506;10.400;2023-10-19T17:08:57;14.50;;;13.00;;
9422;SDS011;65863;49.506;10.400;2023-10-19T17:11:53;13.03;;;11.60;;
9422;SDS011;65863;49.506;10.400;2023-10-19T17:14:37;13.97;;;12.40;;
9422;SDS011;65863;49.506;10.400;2023-10-19T17:17:23;13.20;;;11.80;;
9422;SDS011;65863;49.506;10.400;2023-10-19T17:20:07;13.33;;;11.93;;
9422;SDS011;65863;49.506;10.400;2023-10-19T17:22:53;14.60;;;13.10;;
9422;SDS011;65863;49.506;10.400;2023-10-19T17:25:37;19.47;;;14.23;;
9422;SDS011;65863;49.506;10.400;2023-10-19T17:28:21;14.00;;;12.50;;
9422;SDS011;65863;49.506;10.400;2023-10-19T17:31:05;13.07;;;11.70;;
9422;SDS011;65863;49.506;10.400;2023-10-19T17:33:50;13.63;;;12.03;;
9422;SDS011;65863;49.506;10.400;2023-10-19T17:36:36;14.13;;;12.13;;
9422;SDS011;65863;49.506;10.400;2023-10-19T17:39:19;13.60;;;12.20;;
9422;SDS011;65863;49.506;10.400;2023-10-19T17:42:06;14.27;;;12.07;;
9422;SDS011;65863;49.506;10.400;2023-10-19T17:44:52;13.60;;;11.77;;
9422;SDS011;65863;49.506;10.400;2023-10-19T17:47:36;13.77;;;11.70;;
9422;SDS011;65863;49.506;10.400;2023-10-19T17:50:20;13.37;;;11.93;;
9422;SDS011;65863;49.506;10.400;2023-10-19T17:53:04;12.60;;;11.30;;
9422;SDS011;65863;49.506;10.400;2023-10-19T17:55:50;13.00;;;11.60;;
9422;SDS011;65863;49.506;10.400;2023-10-19T17:58:36;13.30;;;11.73;;
9422;SDS011;65863;49.506;10.400;2023-10-19T18:01:20;28.80;;;23.50;;
9422;SDS011;65863;49.506;10.400;2023-10-19T18:04:05;13.17;;;11.90;;
9422;SDS011;65863;49.506;10.400;2023-10-19T18:06:49;16.77;;;12.43;;
9422;SDS011;65863;49.506;10.400;2023-10-19T18:09:35;12.97;;;11.00;;
9422;SDS011;65863;49.506;10.400;2023-10-19T18:12:21;17.07;;;12.90;;
9422;SDS011;65863;49.506;10.400;2023-10-19T18:15:07;14.03;;;11.73;;
9422;SDS011;65863;49.506;10.400;2023-10-19T18:17:51;14.23;;;11.77;;
9422;SDS011;65863;49.506;10.400;2023-10-19T18:20:35;12.40;;;11.10;;
9422;SDS011;65863;49.506;10.400;2023-10-19T18:23:19;11.80;;;10.60;;
9422;SDS011;65863;49.506;10.400;2023-10-19T18:26:03;15.80;;;14.30;;
9422;SDS011;65863;49.506;10.400;2023-10-19T18:28:49;13.10;;;11.27;;
9422;SDS011;65863;49.506;10.400;2023-10-19T18:31:33;24.53;;;21.60;;
9422;SDS011;65863;49.506;10.400;2023-10-19T18:34:17;14.63;;;11.87;;
9422;SDS011;65863;49.506;10.400;2023-10-19T18:37:03;15.80;;;14.13;;
9422;SDS011;65863;49.506;10.400;2023-10-19T18:39:47;17.17;;;14.50;;
9422;SDS011;65863;49.506;10.400;2023-10-19T18:42:31;17.87;;;12.73;;
9422;SDS011;65863;49.506;10.400;2023-10-19T18:45:16;15.33;;;12.17;;
9422;SDS011;65863;49.506;10.400;2023-10-19T18:48:00;11.23;;;9.97;;
9422;SDS011;65863;49.506;10.400;2023-10-19T18:50:54;10.23;;;9.23;;
9422;SDS011;65863;49.506;10.400;2023-10-19T18:53:39;11.00;;;9.90;;
9422;SDS011;65863;49.506;10.400;2023-10-19T18:56:26;11.23;;;10.03;;
9422;SDS011;65863;49.506;10.400;2023-10-19T18:59:11;10.90;;;9.53;;
9422;SDS011;65863;49.506;10.400;2023-10-19T19:01:55;11.57;;;10.37;;
9422;SDS011;65863;49.506;10.400;2023-10-19T19:04:42;9.43;;;8.53;;
9422;SDS011;65863;49.506;10.400;2023-10-19T19:07:26;13.60;;;9.63;;
9422;SDS011;65863;49.506;10.400;2023-10-19T19:10:11;12.47;;;10.20;;